North Truro, MA (02652)

12:54 AM EDT on September 02, 2015 (GMT -0400)
12 Bayberry Lane, Truro, Ma 02666 | | Change Station
CLOSE
Current Station
Personal Weather Station
Location: Wellfleet, MA
Elevation: 95 ft
Nearby Weather Stations

Elev 95 ft 42.00 °N, 70.05 °W | Updated 10 minutes ago

Clear
Clear
58.3 °F
Feels Like 58.3 °F
N
0.0
Wind Variable Wind from SSW

Today
High -- | Low -- °F
--% Chance of Precip.
Yesterday
High -- | Low -- °F
Precip. -- in
6:06 AM 7:12 PM
Waning Gibbous, 83% visible
Pressure 30.07 in
Visibility 7.0 miles
Clouds Clear
Dew Point 55 °F
Humidity 88%
Rainfall 0.00 in
Snow Depth Not available.
UV 0 out of 12
Pollen 9.10 out of 12
Air Quality Not available.
Flu Activity Not available.
METAR KCQX 020452Z AUTO 00000KT 7SM CLR 18/17 A3007 RMK AO2 SLP183 T01780172 402440172
Pressure 30.07 in
Visibility 7.0 miles
Clouds Clear
Dew Point 55 °F
Humidity 88%
Rainfall 0.00 in
Snow Depth Not available.
UV 0 out of 12
Pollen 9.10 out of 12
Air Quality Not available.
Flu Activity Not available.
METAR KCQX 020452Z AUTO 00000KT 7SM CLR 18/17 A3007 RMK AO2 SLP183 T01780172 402440172

10-Day Weather Forecast

×

Almanac

Astronomy

Sep. 02, 2015 Rise Set
Actual Time
Civil Twilight
Nautical Twilight
Astronomical Twilight
Moon
Length of Visible Light
Length of Day
Tomorrow will be .
, % of the Moon is Illuminated

Today's Extremes

State Highs State Lows

Community

WunderPhotos

Upload Photos

1,851,704 photos uploaded!

WunderBlogs® & News

Nearby

Air Quality

  Air Quality AQ Index Pollutant
Not available.

Snow Depth

Station Depth Elevation

Earthquake Activity

City Distance Mag. Time & Date
Minimum magnitude displayed is 2.5.

Coastal Water Temperatures

Place Temperature

Stations

Nearby Weather Stations

Station Location Temp. Windchill Dew Point Humidity Wind Precip. Elev Updated Type